Time;durP1;ratioP1;P1;durP2;ratioP2;P2;SDS_P1;SDS_P2;PMS_P1;PMS_P2;Temp;Humidity;BMP_temperature;BMP_pressure;BME280_temperature;BME280_humidity;BME280_pressure;Samples;Min_cycle;Max_cycle;Signal;HPM_P1;HPM_P2
2022/05/05 00:28:22;;;;;;;0.80;0.52;;;;;;;;;;6182754;23;20215;-91
2022/05/05 00:31:27;;;;;;;0.50;0.40;;;;;;;;;;6223926;23;20222;-92
2022/05/05 00:34:33;;;;;;;12.85;1.50;;;;;;;;;;6222935;23;20151;-91
2022/05/05 00:37:37;;;;;;;0.55;0.55;;;;;;;;;;6225152;23;20146;-92
2022/05/05 00:41:01;;;;;;;3.45;1.42;;;;;;;;;;6224388;23;20218;-91
2022/05/05 00:44:08;;;;;;;1.27;0.98;;;;;;;;;;6206508;23;20207;-91
2022/05/05 00:47:16;;;;;;;0.70;0.60;;;;;;;;;;6224257;23;20171;-91
2022/05/05 00:50:22;;;;;;;1.70;0.65;;;;;;;;;;6198950;23;20188;-91
2022/05/05 00:53:27;;;;;;;0.25;0.25;;;;;;;;;;6225836;23;20174;-91
2022/05/05 00:56:33;;;;;;;0.50;0.43;;;;;;;;;;6225943;23;20260;-91
2022/05/05 00:59:39;;;;;;;0.40;0.40;;;;;;;;;;6225982;23;20232;-92
2022/05/05 01:02:45;;;;;;;0.73;0.73;;;;;;;;;;6225898;23;20788;-91
2022/05/05 01:05:50;;;;;;;0.55;0.50;;;;;;;;;;6227046;23;20167;-90
2022/05/05 01:08:55;;;;;;;0.63;0.60;;;;;;;;;;6226859;23;20238;-90
2022/05/05 01:12:00;;;;;;;0.52;0.52;;;;;;;;;;6227773;23;20168;-91
2022/05/05 01:15:07;;;;;;;1.35;0.98;;;;;;;;;;6227440;23;20167;-91
2022/05/05 01:18:12;;;;;;;1.40;0.55;;;;;;;;;;6226213;23;20170;-92
2022/05/05 01:21:21;;;;;;;0.43;0.43;;;;;;;;;;6227420;23;20199;-91
2022/05/05 01:31:08;;;;;;;0.80;0.77;;;;;;;;;;6225819;23;20226;-90
2022/05/05 01:34:13;;;;;;;0.40;0.40;;;;;;;;;;6228225;23;20203;-90
2022/05/05 01:37:19;;;;;;;0.32;0.32;;;;;;;;;;6227650;23;20167;-90
2022/05/05 01:40:24;;;;;;;0.68;0.68;;;;;;;;;;6226695;23;20171;-91
2022/05/05 01:43:29;;;;;;;0.30;0.30;;;;;;;;;;6225870;23;20194;-90
2022/05/05 01:46:34;;;;;;;0.70;0.70;;;;;;;;;;6225839;23;20220;-91
2022/05/05 01:49:40;;;;;;;1.30;0.80;;;;;;;;;;6226074;23;20167;-88
2022/05/05 01:52:50;;;;;;;0.98;0.63;;;;;;;;;;6226795;23;20168;-90
2022/05/05 01:55:55;;;;;;;1.65;1.10;;;;;;;;;;6227386;23;20163;-90
2022/05/05 01:59:01;;;;;;;0.98;0.88;;;;;;;;;;6227635;23;20167;-90
2022/05/05 02:02:06;;;;;;;0.68;0.68;;;;;;;;;;6226893;23;20163;-91
2022/05/05 02:05:10;;;;;;;0.63;0.63;;;;;;;;;;6226077;23;20253;-90
2022/05/05 02:08:16;;;;;;;3.63;1.48;;;;;;;;;;6226401;23;20186;-89
2022/05/05 02:11:21;;;;;;;0.40;0.40;;;;;;;;;;6226488;23;20163;-88
2022/05/05 02:14:26;;;;;;;1.48;1.38;;;;;;;;;;6227842;23;20174;-91
2022/05/05 02:17:31;;;;;;;0.68;0.63;;;;;;;;;;6226700;23;20210;-91
2022/05/05 02:20:37;;;;;;;0.93;0.88;;;;;;;;;;6207960;23;20175;-90
2022/05/05 02:23:43;;;;;;;1.20;1.10;;;;;;;;;;6226123;23;20198;-90
2022/05/05 02:26:49;;;;;;;1.17;0.95;;;;;;;;;;6225995;23;20164;-89
2022/05/05 02:29:54;;;;;;;2.42;1.27;;;;;;;;;;6208767;23;20283;-91
2022/05/05 02:32:59;;;;;;;0.75;0.75;;;;;;;;;;6209173;23;20171;-90
2022/05/05 02:39:28;;;;;;;0.63;0.63;;;;;;;;;;6226639;23;20187;-91
2022/05/05 02:42:36;;;;;;;0.40;0.40;;;;;;;;;;6226640;22;20542;-91
2022/05/05 02:45:41;;;;;;;1.52;0.75;;;;;;;;;;6227390;23;20167;-91
2022/05/05 02:48:47;;;;;;;0.85;0.82;;;;;;;;;;6226699;23;20163;-91
2022/05/05 02:51:52;;;;;;;0.73;0.70;;;;;;;;;;6209332;23;20218;-91
2022/05/05 02:54:58;;;;;;;1.13;1.02;;;;;;;;;;6225452;23;20170;-91
2022/05/05 02:58:03;;;;;;;0.50;0.50;;;;;;;;;;6210358;23;20156;-90
2022/05/05 03:01:08;;;;;;;1.27;0.55;;;;;;;;;;6228104;23;20846;-91
2022/05/05 03:04:13;;;;;;;0.63;0.63;;;;;;;;;;6228492;23;20233;-92
2022/05/05 03:07:18;;;;;;;1.50;1.13;;;;;;;;;;6226035;23;20167;-91
2022/05/05 03:10:24;;;;;;;3.72;1.60;;;;;;;;;;6227939;23;20232;-91
2022/05/05 03:13:29;;;;;;;0.47;0.47;;;;;;;;;;6227371;23;20167;-91
2022/05/05 03:16:34;;;;;;;0.60;0.60;;;;;;;;;;6228130;23;20176;-91
2022/05/05 03:19:39;;;;;;;2.22;0.80;;;;;;;;;;6227559;23;20245;-91
2022/05/05 03:22:44;;;;;;;1.23;1.13;;;;;;;;;;6209089;23;20322;-91
2022/05/05 03:25:50;;;;;;;2.20;1.95;;;;;;;;;;6227875;23;20146;-91
2022/05/05 03:28:54;;;;;;;4.30;1.50;;;;;;;;;;6227851;23;20224;-91
2022/05/05 03:32:00;;;;;;;0.77;0.77;;;;;;;;;;6226160;23;20274;-91
2022/05/05 03:35:05;;;;;;;2.97;1.17;;;;;;;;;;6226911;23;20614;-91
2022/05/05 03:38:10;;;;;;;1.45;0.88;;;;;;;;;;6225552;23;20164;-91
2022/05/05 03:41:16;;;;;;;4.90;2.28;;;;;;;;;;6226337;23;20171;-91
2022/05/05 03:44:21;;;;;;;6.07;3.00;;;;;;;;;;6223964;23;20217;-92
2022/05/05 03:47:26;;;;;;;3.33;1.75;;;;;;;;;;6225113;23;20176;-91
2022/05/05 03:50:32;;;;;;;1.83;1.13;;;;;;;;;;6226820;23;20170;-92
2022/05/05 03:53:37;;;;;;;3.58;1.38;;;;;;;;;;6226229;23;20170;-90
2022/05/05 03:56:44;;;;;;;1.00;0.80;;;;;;;;;;6225314;23;20246;-90
2022/05/05 03:59:48;;;;;;;1.13;0.85;;;;;;;;;;6226659;23;20570;-91
2022/05/05 04:06:16;;;;;;;0.85;0.85;;;;;;;;;;6207828;23;20246;-90
2022/05/05 04:09:21;;;;;;;1.67;1.38;;;;;;;;;;6224023;23;20171;-91
2022/05/05 04:12:27;;;;;;;1.58;1.48;;;;;;;;;;6224625;23;20183;-90
2022/05/05 04:15:33;;;;;;;3.90;2.03;;;;;;;;;;6225204;23;20236;-91
2022/05/05 04:18:38;;;;;;;2.40;1.48;;;;;;;;;;6208237;23;20175;-91
2022/05/05 04:21:44;;;;;;;0.73;0.73;;;;;;;;;;6227438;23;20150;-91
2022/05/05 04:24:49;;;;;;;1.00;0.88;;;;;;;;;;6226457;23;20654;-91
2022/05/05 04:27:56;;;;;;;1.30;1.23;;;;;;;;;;6224423;23;20289;-92
2022/05/05 04:31:01;;;;;;;1.45;1.35;;;;;;;;;;6211420;23;20167;-91
2022/05/05 04:34:06;;;;;;;0.65;0.63;;;;;;;;;;6230558;23;20227;-92
2022/05/05 04:37:22;;;;;;;0.52;0.52;;;;;;;;;;6228593;23;20183;-90
2022/05/05 04:40:28;;;;;;;1.05;0.88;;;;;;;;;;6230884;23;20187;-91
2022/05/05 04:43:37;;;;;;;2.65;1.05;;;;;;;;;;6229578;23;20259;-91
2022/05/05 04:46:42;;;;;;;0.95;0.95;;;;;;;;;;6229532;23;20191;-91
2022/05/05 04:49:48;;;;;;;2.75;1.67;;;;;;;;;;6230495;23;20278;-90
2022/05/05 04:52:53;;;;;;;0.60;0.60;;;;;;;;;;6228061;23;20172;-91
2022/05/05 04:55:58;;;;;;;0.82;0.82;;;;;;;;;;6230116;23;20166;-89
2022/05/05 04:59:04;;;;;;;1.15;1.00;;;;;;;;;;6227756;23;20245;-91
2022/05/05 05:02:11;;;;;;;1.35;1.05;;;;;;;;;;6230322;23;20167;-91
2022/05/05 05:05:17;;;;;;;2.90;1.33;;;;;;;;;;6212405;23;20155;-89
2022/05/05 05:08:22;;;;;;;1.48;1.20;;;;;;;;;;6230919;23;20167;-90
2022/05/05 05:11:27;;;;;;;1.85;1.70;;;;;;;;;;6230189;23;20166;-90
2022/05/05 05:14:34;;;;;;;1.05;0.80;;;;;;;;;;6228186;23;20183;-90
2022/05/05 05:17:39;;;;;;;3.00;1.25;;;;;;;;;;6228219;23;20171;-90
2022/05/05 05:20:44;;;;;;;3.53;1.38;;;;;;;;;;6231291;23;20177;-89
2022/05/05 05:23:49;;;;;;;3.13;1.67;;;;;;;;;;6228422;23;20187;-89
2022/05/05 05:26:54;;;;;;;1.88;1.70;;;;;;;;;;6229247;23;20163;-90
2022/05/05 05:30:01;;;;;;;0.60;0.60;;;;;;;;;;6210755;23;20190;-90
2022/05/05 05:33:06;;;;;;;2.65;1.42;;;;;;;;;;6228180;23;20155;-91
2022/05/05 05:36:12;;;;;;;0.77;0.73;;;;;;;;;;6231675;23;20175;-90
2022/05/05 05:39:17;;;;;;;1.08;0.98;;;;;;;;;;6232536;23;20232;-91
2022/05/05 05:42:22;;;;;;;1.38;1.27;;;;;;;;;;6230762;23;20182;-89
2022/05/05 05:45:29;;;;;;;1.25;1.15;;;;;;;;;;6231792;22;20171;-89
2022/05/05 05:48:34;;;;;;;0.82;0.82;;;;;;;;;;6232554;23;20187;-90
2022/05/05 05:51:42;;;;;;;1.17;0.98;;;;;;;;;;6229968;23;20182;-91
2022/05/05 05:54:49;;;;;;;2.15;1.75;;;;;;;;;;6214891;23;20220;-91
2022/05/05 05:57:54;;;;;;;1.30;0.80;;;;;;;;;;6230375;23;20171;-91
2022/05/05 06:01:00;;;;;;;4.35;1.35;;;;;;;;;;6229344;23;20547;-91
2022/05/05 06:04:04;;;;;;;1.77;1.05;;;;;;;;;;6212533;23;20195;-91
2022/05/05 06:07:09;;;;;;;1.33;1.17;;;;;;;;;;6210964;23;20638;-90
2022/05/05 06:10:15;;;;;;;1.38;1.27;;;;;;;;;;6214647;23;20186;-91
2022/05/05 06:13:20;;;;;;;1.10;0.93;;;;;;;;;;6211714;23;20243;-90
2022/05/05 06:16:27;;;;;;;3.45;1.95;;;;;;;;;;6228760;23;20259;-90
2022/05/05 06:19:32;;;;;;;1.55;1.17;;;;;;;;;;6229325;23;20216;-91
2022/05/05 06:22:38;;;;;;;3.15;1.55;;;;;;;;;;6231113;23;20167;-91
2022/05/05 06:25:44;;;;;;;1.38;1.27;;;;;;;;;;6233463;23;20264;-91
2022/05/05 06:28:56;;;;;;;0.75;0.75;;;;;;;;;;6233964;23;20190;-90
2022/05/05 06:32:03;;;;;;;0.77;0.77;;;;;;;;;;6231445;23;20191;-90
2022/05/05 06:35:09;;;;;;;1.20;1.10;;;;;;;;;;6213465;23;20166;-91
2022/05/05 06:38:15;;;;;;;2.22;1.48;;;;;;;;;;6218289;23;20163;-91
2022/05/05 06:41:21;;;;;;;1.13;1.05;;;;;;;;;;6234205;23;20626;-90
2022/05/05 06:44:27;;;;;;;4.32;2.15;;;;;;;;;;6232072;23;20579;-92
2022/05/05 06:47:36;;;;;;;0.77;0.77;;;;;;;;;;6232553;23;20504;-91
2022/05/05 06:50:42;;;;;;;1.27;0.90;;;;;;;;;;6233292;23;20167;-91
2022/05/05 06:53:48;;;;;;;2.90;1.08;;;;;;;;;;6213745;23;20196;-91
2022/05/05 06:56:54;;;;;;;0.85;0.85;;;;;;;;;;6233299;23;20187;-91
2022/05/05 07:00:00;;;;;;;0.90;0.90;;;;;;;;;;6233044;23;20210;-90
2022/05/05 07:03:08;;;;;;;1.50;1.08;;;;;;;;;;6215652;23;20172;-90
2022/05/05 07:06:13;;;;;;;1.88;1.38;;;;;;;;;;6233595;23;20170;-92
2022/05/05 07:12:41;;;;;;;2.42;1.17;;;;;;;;;;6228477;23;20181;-90
2022/05/05 07:15:47;;;;;;;0.80;0.80;;;;;;;;;;6231221;23;20191;-90
2022/05/05 07:18:54;;;;;;;1.15;1.05;;;;;;;;;;6230568;23;20249;-91
2022/05/05 07:21:59;;;;;;;1.77;1.67;;;;;;;;;;6212011;23;20164;-91
2022/05/05 07:25:05;;;;;;;23.45;13.00;;;;;;;;;;6232018;23;20186;-89
2022/05/05 07:28:12;;;;;;;17.42;10.80;;;;;;;;;;6216067;23;20255;-90
2022/05/05 07:31:19;;;;;;;17.63;9.93;;;;;;;;;;6217242;23;20179;-91
2022/05/05 07:38:00;;;;;;;16.20;9.65;;;;;;;;;;6215659;23;20174;-90
2022/05/05 07:47:43;;;;;;;15.90;9.45;;;;;;;;;;6228196;23;20233;-91
2022/05/05 07:50:49;;;;;;;11.85;9.02;;;;;;;;;;6227896;23;20171;-89
2022/05/05 07:57:17;;;;;;;10.88;7.75;;;;;;;;;;6209868;23;20168;-91
2022/05/05 08:00:24;;;;;;;9.80;7.10;;;;;;;;;;6228240;23;20182;-90
2022/05/05 08:03:30;;;;;;;11.98;6.90;;;;;;;;;;6230139;23;20500;-91
2022/05/05 08:06:34;;;;;;;10.00;6.50;;;;;;;;;;6231208;23;20171;-91
2022/05/05 08:09:41;;;;;;;13.90;7.28;;;;;;;;;;6226864;23;20167;-91
2022/05/05 08:12:46;;;;;;;12.27;6.90;;;;;;;;;;6226856;23;20167;-91
2022/05/05 08:15:51;;;;;;;9.35;6.18;;;;;;;;;;6207966;23;20187;-92
2022/05/05 08:19:01;;;;;;;9.75;6.20;;;;;;;;;;6229103;23;20159;-91
2022/05/05 08:22:07;;;;;;;10.43;6.95;;;;;;;;;;6211034;23;20179;-91
2022/05/05 08:28:40;;;;;;;9.90;6.78;;;;;;;;;;6226370;23;20222;-91
2022/05/05 08:31:45;;;;;;;12.23;6.38;;;;;;;;;;6209107;23;20302;-90
2022/05/05 08:34:51;;;;;;;10.70;6.32;;;;;;;;;;6209487;23;20523;-91
2022/05/05 08:37:57;;;;;;;8.20;5.63;;;;;;;;;;6230352;23;20178;-92
2022/05/05 08:41:04;;;;;;;9.48;5.72;;;;;;;;;;6209755;23;20548;-91
2022/05/05 08:44:10;;;;;;;9.32;5.50;;;;;;;;;;6211583;23;20210;-92
2022/05/05 08:47:16;;;;;;;7.18;4.90;;;;;;;;;;6213541;23;20167;-92
2022/05/05 08:50:22;;;;;;;9.70;5.05;;;;;;;;;;6230202;23;20178;-90
2022/05/05 08:53:36;;;;;;;7.50;4.38;;;;;;;;;;6228644;23;20162;-91
2022/05/05 08:56:43;;;;;;;5.93;4.18;;;;;;;;;;6228277;23;20618;-91
2022/05/05 08:59:49;;;;;;;6.60;3.80;;;;;;;;;;6230142;23;20170;-92
2022/05/05 09:02:56;;;;;;;5.63;3.80;;;;;;;;;;6209971;23;20212;-91
2022/05/05 09:09:29;;;;;;;7.97;4.40;;;;;;;;;;6211251;23;20191;-94
2022/05/05 09:12:36;;;;;;;8.70;5.07;;;;;;;;;;6227457;23;20199;-93
2022/05/05 09:15:42;;;;;;;6.65;4.70;;;;;;;;;;6228551;23;20623;-91
2022/05/05 09:18:47;;;;;;;8.30;5.20;;;;;;;;;;6231730;23;20175;-90
2022/05/05 09:21:53;;;;;;;6.68;4.93;;;;;;;;;;6229199;23;20218;-92
2022/05/05 09:25:01;;;;;;;6.85;4.30;;;;;;;;;;6227706;23;20171;-92
2022/05/05 09:28:16;;;;;;;6.25;4.38;;;;;;;;;;6227011;23;20190;-92
2022/05/05 09:31:22;;;;;;;7.95;3.92;;;;;;;;;;6230094;23;20167;-92
2022/05/05 09:34:27;;;;;;;6.40;3.85;;;;;;;;;;6210348;23;20286;-93
2022/05/05 09:37:33;;;;;;;7.00;3.83;;;;;;;;;;6227218;23;20215;-89
2022/05/05 09:40:38;;;;;;;6.15;4.25;;;;;;;;;;6230935;23;20174;-91
2022/05/05 09:43:58;;;;;;;10.95;4.70;;;;;;;;;;6218731;23;20163;-90
2022/05/05 09:47:16;;;;;;;9.15;5.07;;;;;;;;;;6220181;23;20275;-89
2022/05/05 09:50:22;;;;;;;7.15;4.70;;;;;;;;;;6217287;23;20171;-91
2022/05/05 10:00:31;;;;;;;6.30;3.85;;;;;;;;;;6232498;23;20167;-91
2022/05/05 10:07:08;;;;;;;6.25;3.45;;;;;;;;;;6231070;23;20178;-92
2022/05/05 10:10:13;;;;;;;6.85;3.90;;;;;;;;;;6231766;23;20159;-92
2022/05/05 10:13:20;;;;;;;7.22;3.00;;;;;;;;;;6214128;23;20170;-94
2022/05/05 10:16:26;;;;;;;9.07;2.70;;;;;;;;;;6233384;23;20175;-93
2022/05/05 10:19:33;;;;;;;6.35;3.10;;;;;;;;;;6229827;23;20162;-91
2022/05/05 10:22:42;;;;;;;4.38;2.33;;;;;;;;;;6230732;23;20211;-92
2022/05/05 10:25:52;;;;;;;3.60;2.22;;;;;;;;;;6211840;23;20218;-92
2022/05/05 10:28:57;;;;;;;8.85;2.50;;;;;;;;;;6226319;23;20194;-92
2022/05/05 10:32:06;;;;;;;5.35;2.95;;;;;;;;;;6227043;23;20169;-92
2022/05/05 10:35:25;;;;;;;6.10;3.28;;;;;;;;;;6229479;23;20203;-92
2022/05/05 10:38:40;;;;;;;3.88;2.70;;;;;;;;;;6209274;23;20157;-91
2022/05/05 10:41:45;;;;;;;4.03;2.90;;;;;;;;;;6229426;23;20171;-91
2022/05/05 10:45:12;;;;;;;5.57;3.60;;;;;;;;;;6230035;23;20193;-91
2022/05/05 10:48:35;;;;;;;5.75;3.08;;;;;;;;;;6230614;23;20171;-91
2022/05/05 10:52:06;;;;;;;4.63;2.80;;;;;;;;;;6212450;23;20175;-92
2022/05/05 10:55:29;;;;;;;3.72;2.50;;;;;;;;;;6232879;23;20170;-91
2022/05/05 10:59:02;;;;;;;9.10;2.80;;;;;;;;;;6227673;23;20162;-91
2022/05/05 11:02:19;;;;;;;6.95;2.90;;;;;;;;;;6227586;23;20218;-91
2022/05/05 11:05:26;;;;;;;17.15;3.35;;;;;;;;;;6228335;23;20202;-91
2022/05/05 11:12:12;;;;;;;5.75;3.30;;;;;;;;;;6230268;23;20183;-91
2022/05/05 11:22:25;;;;;;;6.25;3.03;;;;;;;;;;6166861;23;20320;-92
2022/05/05 11:25:31;;;;;;;6.80;3.03;;;;;;;;;;6228772;23;20646;-92
2022/05/05 11:28:37;;;;;;;6.78;2.60;;;;;;;;;;6231100;23;20514;-92
2022/05/05 11:31:42;;;;;;;8.00;2.90;;;;;;;;;;6231807;23;20171;-93
2022/05/05 11:34:48;;;;;;;3.17;2.38;;;;;;;;;;6212332;23;20550;-91
2022/05/05 11:38:01;;;;;;;3.33;2.78;;;;;;;;;;6212618;23;20162;-92
2022/05/05 11:41:07;;;;;;;6.22;2.83;;;;;;;;;;6231357;23;20167;-92
2022/05/05 11:44:17;;;;;;;4.85;2.88;;;;;;;;;;6214607;23;20162;-92
2022/05/05 11:47:23;;;;;;;5.15;2.50;;;;;;;;;;6230457;23;20170;-92
2022/05/05 11:50:28;;;;;;;6.70;3.00;;;;;;;;;;6230438;23;20298;-91
2022/05/05 11:53:35;;;;;;;7.35;3.08;;;;;;;;;;6230785;23;20170;-90
2022/05/05 11:56:49;;;;;;;7.72;3.70;;;;;;;;;;6229052;23;20166;-91
2022/05/05 12:03:21;;;;;;;9.90;3.42;;;;;;;;;;6229740;23;20216;-91
2022/05/05 12:06:27;;;;;;;8.85;3.13;;;;;;;;;;6226634;23;20186;-91
2022/05/05 12:09:32;;;;;;;11.00;5.00;;;;;;;;;;6227190;23;20174;-91
2022/05/05 12:12:39;;;;;;;7.00;3.65;;;;;;;;;;6210654;23;20227;-92
2022/05/05 12:15:46;;;;;;;5.25;3.40;;;;;;;;;;6208897;23;20617;-92
2022/05/05 12:18:55;;;;;;;6.22;3.33;;;;;;;;;;6209517;23;20257;-92
2022/05/05 12:22:00;;;;;;;4.05;2.55;;;;;;;;;;6227072;23;20174;-93
2022/05/05 12:25:09;;;;;;;4.45;3.10;;;;;;;;;;6227111;23;20190;-93
2022/05/05 12:28:17;;;;;;;4.35;2.50;;;;;;;;;;6212466;23;20607;-93
2022/05/05 12:31:23;;;;;;;3.72;2.25;;;;;;;;;;6229079;23;20171;-93
2022/05/05 12:37:57;;;;;;;4.85;2.58;;;;;;;;;;6231316;23;20626;-91
2022/05/05 12:41:08;;;;;;;4.35;2.85;;;;;;;;;;6231275;23;20183;-91
2022/05/05 12:44:14;;;;;;;20.05;7.90;;;;;;;;;;6230377;23;20614;-92
2022/05/05 12:47:27;;;;;;;4.25;2.67;;;;;;;;;;6210155;23;20170;-93
2022/05/05 12:50:38;;;;;;;7.55;4.00;;;;;;;;;;6232066;23;20151;-92
2022/05/05 13:00:31;;;;;;;5.10;2.83;;;;;;;;;;6228783;23;20167;-92
2022/05/05 13:03:37;;;;;;;6.18;2.35;;;;;;;;;;6230867;23;20170;-92
2022/05/05 13:06:45;;;;;;;6.35;2.50;;;;;;;;;;6231977;23;20646;-93
2022/05/05 13:09:51;;;;;;;3.78;2.30;;;;;;;;;;6232296;23;20174;-92
2022/05/05 13:12:58;;;;;;;4.32;2.25;;;;;;;;;;6233666;23;20171;-90
2022/05/05 13:16:06;;;;;;;4.28;2.45;;;;;;;;;;6232487;23;20618;-91
2022/05/05 13:19:42;;;;;;;5.95;2.65;;;;;;;;;;6210046;23;20222;-91
2022/05/05 13:22:47;;;;;;;4.70;2.55;;;;;;;;;;6230692;23;20159;-90
2022/05/05 13:25:53;;;;;;;5.82;2.80;;;;;;;;;;6211896;23;20203;-90
2022/05/05 13:28:58;;;;;;;7.55;2.70;;;;;;;;;;6213891;23;20222;-91
2022/05/05 13:32:05;;;;;;;4.32;2.83;;;;;;;;;;6231317;23;20171;-90
2022/05/05 13:35:11;;;;;;;6.65;2.58;;;;;;;;;;6212454;23;20311;-90
2022/05/05 13:38:17;;;;;;;5.35;2.70;;;;;;;;;;6227616;23;20183;-91
2022/05/05 13:41:22;;;;;;;4.85;2.40;;;;;;;;;;6230044;23;20175;-91
2022/05/05 13:44:27;;;;;;;8.32;3.38;;;;;;;;;;6228847;23;20171;-92
2022/05/05 13:47:34;;;;;;;3.28;2.70;;;;;;;;;;6230271;23;20160;-91
2022/05/05 13:50:40;;;;;;;6.60;2.85;;;;;;;;;;6230482;23;20179;-91
2022/05/05 13:53:46;;;;;;;4.95;2.30;;;;;;;;;;6230382;23;20175;-91
2022/05/05 13:56:52;;;;;;;4.10;2.50;;;;;;;;;;6235242;23;20226;-92
2022/05/05 13:59:58;;;;;;;6.22;2.13;;;;;;;;;;6233658;23;20167;-92
2022/05/05 14:03:06;;;;;;;5.40;2.30;;;;;;;;;;6215666;23;20219;-92
2022/05/05 14:06:11;;;;;;;10.38;2.38;;;;;;;;;;6215134;23;20552;-92
2022/05/05 14:12:40;;;;;;;3.95;2.40;;;;;;;;;;6234063;23;20163;-91
2022/05/05 14:15:47;;;;;;;4.20;2.30;;;;;;;;;;6231977;23;20215;-94
2022/05/05 14:18:57;;;;;;;4.72;2.70;;;;;;;;;;6230403;23;20167;-91
2022/05/05 14:22:05;;;;;;;3.08;2.30;;;;;;;;;;6231891;23;20207;-92
2022/05/05 14:25:11;;;;;;;3.72;2.10;;;;;;;;;;6210438;23;20390;-90
2022/05/05 14:28:16;;;;;;;4.38;2.42;;;;;;;;;;6211638;23;20190;-90
2022/05/05 14:31:22;;;;;;;3.60;2.50;;;;;;;;;;6229986;23;20166;-89
2022/05/05 14:34:29;;;;;;;8.35;2.55;;;;;;;;;;6233963;22;20174;-88
2022/05/05 14:37:35;;;;;;;9.00;2.78;;;;;;;;;;6231404;23;20170;-91
2022/05/05 14:44:06;;;;;;;4.60;3.13;;;;;;;;;;6220289;23;20192;-90
2022/05/05 14:47:13;;;;;;;9.48;3.40;;;;;;;;;;6231518;23;20190;-91
2022/05/05 14:50:22;;;;;;;6.38;2.70;;;;;;;;;;6232408;23;20175;-92
2022/05/05 14:53:30;;;;;;;11.52;3.15;;;;;;;;;;6229575;23;20171;-90
2022/05/05 14:56:35;;;;;;;4.28;2.47;;;;;;;;;;6228371;23;20179;-93
2022/05/05 14:59:41;;;;;;;6.30;2.75;;;;;;;;;;6211871;23;20226;-92
2022/05/05 15:02:46;;;;;;;8.30;2.80;;;;;;;;;;6229238;23;20176;-91
2022/05/05 15:05:55;;;;;;;8.07;2.80;;;;;;;;;;6229646;23;20234;-90
2022/05/05 15:09:05;;;;;;;8.32;2.63;;;;;;;;;;6229965;23;20167;-90
2022/05/05 15:12:12;;;;;;;10.32;4.47;;;;;;;;;;6214918;23;20163;-90
